Terminal Aerodrome Forecast
Issued by NWS

Home | Current Version | Previous Version | Text Only | Print | Product List | Glossary On
Versions: 1 2 3 4 5 6 7 8 9 10 11 12 13 14 15 16 17
000
FTUS43 KICT 190855 AAA
TAFCNU
TAF AMD
KCNU 190855Z 1909/2006 18017G22KT 3SM -DZ BR OVC003 WS020/19055KT
      TEMPO 1909/1912 6SM BR OVC006
     FM191200 19022G30KT P6SM -SHRA VCTS OVC009CB
     FM192000 19017G26KT 4SM -SHRA OVC009=

USA.gov is the U.S. government's official web portal to all federal, state and local government web resources and services.